sensor_id;sensor_type;location;lat;lon;timestamp;P1;durP1;ratioP1;P2;durP2;ratioP2
11082;SDS011;5595;50.186;8.468;2023-05-16T00:01:58;14.40;;;7.67;;
11082;SDS011;5595;50.186;8.468;2023-05-16T00:04:26;9.83;;;5.83;;
11082;SDS011;5595;50.186;8.468;2023-05-16T00:06:52;15.60;;;8.30;;
11082;SDS011;5595;50.186;8.468;2023-05-16T00:09:19;10.43;;;5.83;;
11082;SDS011;5595;50.186;8.468;2023-05-16T00:11:46;15.17;;;9.07;;
11082;SDS011;5595;50.186;8.468;2023-05-16T00:14:15;12.03;;;6.87;;
11082;SDS011;5595;50.186;8.468;2023-05-16T00:16:43;11.40;;;4.43;;
11082;SDS011;5595;50.186;8.468;2023-05-16T00:19:11;12.33;;;7.73;;
11082;SDS011;5595;50.186;8.468;2023-05-16T00:21:38;12.17;;;7.90;;
11082;SDS011;5595;50.186;8.468;2023-05-16T00:24:05;11.70;;;6.50;;
11082;SDS011;5595;50.186;8.468;2023-05-16T00:26:33;12.93;;;6.50;;
11082;SDS011;5595;50.186;8.468;2023-05-16T00:28:59;14.47;;;8.10;;
11082;SDS011;5595;50.186;8.468;2023-05-16T00:31:28;14.37;;;8.53;;
11082;SDS011;5595;50.186;8.468;2023-05-16T00:33:55;11.17;;;7.50;;
11082;SDS011;5595;50.186;8.468;2023-05-16T00:36:22;13.40;;;7.50;;
11082;SDS011;5595;50.186;8.468;2023-05-16T00:38:48;11.27;;;5.47;;
11082;SDS011;5595;50.186;8.468;2023-05-16T00:41:15;14.17;;;8.40;;
11082;SDS011;5595;50.186;8.468;2023-05-16T00:43:43;12.30;;;7.63;;
11082;SDS011;5595;50.186;8.468;2023-05-16T00:46:10;10.23;;;6.43;;
11082;SDS011;5595;50.186;8.468;2023-05-16T00:48:38;11.00;;;5.97;;
11082;SDS011;5595;50.186;8.468;2023-05-16T00:51:05;11.33;;;7.40;;
11082;SDS011;5595;50.186;8.468;2023-05-16T00:53:33;15.43;;;7.97;;
11082;SDS011;5595;50.186;8.468;2023-05-16T00:56:00;12.53;;;7.40;;
11082;SDS011;5595;50.186;8.468;2023-05-16T00:58:28;6.37;;;4.27;;
11082;SDS011;5595;50.186;8.468;2023-05-16T01:00:56;9.53;;;5.93;;
11082;SDS011;5595;50.186;8.468;2023-05-16T01:03:23;10.30;;;6.57;;
11082;SDS011;5595;50.186;8.468;2023-05-16T01:05:51;6.93;;;4.57;;
11082;SDS011;5595;50.186;8.468;2023-05-16T01:08:18;12.13;;;8.07;;
11082;SDS011;5595;50.186;8.468;2023-05-16T01:10:48;13.87;;;8.27;;
11082;SDS011;5595;50.186;8.468;2023-05-16T01:13:21;11.02;;;5.30;;
11082;SDS011;5595;50.186;8.468;2023-05-16T01:15:58;12.77;;;7.57;;
11082;SDS011;5595;50.186;8.468;2023-05-16T01:18:30;11.50;;;6.67;;
11082;SDS011;5595;50.186;8.468;2023-05-16T01:21:09;9.63;;;5.57;;
11082;SDS011;5595;50.186;8.468;2023-05-16T01:23:46;10.57;;;6.43;;
11082;SDS011;5595;50.186;8.468;2023-05-16T01:26:19;12.87;;;6.37;;
11082;SDS011;5595;50.186;8.468;2023-05-16T01:28:48;8.07;;;5.50;;
11082;SDS011;5595;50.186;8.468;2023-05-16T01:31:16;8.67;;;6.07;;
11082;SDS011;5595;50.186;8.468;2023-05-16T01:33:43;9.93;;;6.38;;
11082;SDS011;5595;50.186;8.468;2023-05-16T01:36:13;12.27;;;6.17;;
11082;SDS011;5595;50.186;8.468;2023-05-16T01:39:00;8.43;;;5.67;;
11082;SDS011;5595;50.186;8.468;2023-05-16T01:41:39;9.07;;;5.23;;
11082;SDS011;5595;50.186;8.468;2023-05-16T01:44:15;10.20;;;5.63;;
11082;SDS011;5595;50.186;8.468;2023-05-16T01:46:46;6.73;;;2.87;;
11082;SDS011;5595;50.186;8.468;2023-05-16T01:49:19;9.00;;;6.67;;
11082;SDS011;5595;50.186;8.468;2023-05-16T01:51:51;7.40;;;4.63;;
11082;SDS011;5595;50.186;8.468;2023-05-16T01:54:22;12.83;;;7.17;;
11082;SDS011;5595;50.186;8.468;2023-05-16T01:56:52;10.50;;;5.20;;
11082;SDS011;5595;50.186;8.468;2023-05-16T01:59:21;8.30;;;4.80;;
11082;SDS011;5595;50.186;8.468;2023-05-16T02:01:51;10.70;;;6.33;;
11082;SDS011;5595;50.186;8.468;2023-05-16T02:04:19;9.60;;;6.23;;
11082;SDS011;5595;50.186;8.468;2023-05-16T02:06:46;11.70;;;6.33;;
11082;SDS011;5595;50.186;8.468;2023-05-16T02:09:13;6.87;;;3.90;;
11082;SDS011;5595;50.186;8.468;2023-05-16T02:11:40;8.30;;;5.30;;
11082;SDS011;5595;50.186;8.468;2023-05-16T02:14:08;6.13;;;3.77;;
11082;SDS011;5595;50.186;8.468;2023-05-16T02:16:35;11.13;;;6.63;;
11082;SDS011;5595;50.186;8.468;2023-05-16T02:19:02;13.33;;;7.13;;
11082;SDS011;5595;50.186;8.468;2023-05-16T02:21:29;6.97;;;3.63;;
11082;SDS011;5595;50.186;8.468;2023-05-16T02:23:56;6.60;;;4.37;;
11082;SDS011;5595;50.186;8.468;2023-05-16T02:26:23;11.53;;;5.77;;
11082;SDS011;5595;50.186;8.468;2023-05-16T02:28:50;9.47;;;6.47;;
11082;SDS011;5595;50.186;8.468;2023-05-16T02:31:26;13.47;;;4.87;;
11082;SDS011;5595;50.186;8.468;2023-05-16T02:33:53;8.17;;;3.77;;
11082;SDS011;5595;50.186;8.468;2023-05-16T02:36:20;7.97;;;3.63;;
11082;SDS011;5595;50.186;8.468;2023-05-16T02:38:47;6.03;;;4.10;;
11082;SDS011;5595;50.186;8.468;2023-05-16T02:41:13;7.17;;;4.33;;
11082;SDS011;5595;50.186;8.468;2023-05-16T02:43:40;10.30;;;6.43;;
11082;SDS011;5595;50.186;8.468;2023-05-16T02:46:18;6.50;;;4.53;;
11082;SDS011;5595;50.186;8.468;2023-05-16T02:48:48;8.83;;;5.47;;
11082;SDS011;5595;50.186;8.468;2023-05-16T02:51:14;14.20;;;6.33;;
11082;SDS011;5595;50.186;8.468;2023-05-16T02:53:41;6.97;;;4.80;;
11082;SDS011;5595;50.186;8.468;2023-05-16T02:56:08;9.27;;;5.13;;
11082;SDS011;5595;50.186;8.468;2023-05-16T02:58:35;9.17;;;5.60;;
11082;SDS011;5595;50.186;8.468;2023-05-16T03:01:02;7.30;;;3.33;;
11082;SDS011;5595;50.186;8.468;2023-05-16T03:03:29;13.37;;;5.80;;
11082;SDS011;5595;50.186;8.468;2023-05-16T03:05:58;8.27;;;5.70;;
11082;SDS011;5595;50.186;8.468;2023-05-16T03:08:25;9.27;;;3.47;;
11082;SDS011;5595;50.186;8.468;2023-05-16T03:10:52;10.00;;;5.60;;
11082;SDS011;5595;50.186;8.468;2023-05-16T03:13:18;13.90;;;6.00;;
11082;SDS011;5595;50.186;8.468;2023-05-16T03:15:47;8.47;;;5.30;;
11082;SDS011;5595;50.186;8.468;2023-05-16T03:18:14;9.30;;;4.90;;
11082;SDS011;5595;50.186;8.468;2023-05-16T03:20:41;11.87;;;6.10;;
11082;SDS011;5595;50.186;8.468;2023-05-16T03:23:09;7.27;;;4.00;;
11082;SDS011;5595;50.186;8.468;2023-05-16T03:25:36;8.23;;;5.00;;
11082;SDS011;5595;50.186;8.468;2023-05-16T03:28:04;8.13;;;4.80;;
11082;SDS011;5595;50.186;8.468;2023-05-16T03:30:31;9.13;;;5.07;;
11082;SDS011;5595;50.186;8.468;2023-05-16T03:32:58;8.70;;;4.90;;
11082;SDS011;5595;50.186;8.468;2023-05-16T03:35:25;11.50;;;4.93;;
11082;SDS011;5595;50.186;8.468;2023-05-16T03:37:52;3.53;;;2.30;;
11082;SDS011;5595;50.186;8.468;2023-05-16T03:40:21;9.77;;;4.67;;
11082;SDS011;5595;50.186;8.468;2023-05-16T03:42:48;7.67;;;4.83;;
11082;SDS011;5595;50.186;8.468;2023-05-16T03:45:17;5.43;;;3.63;;
11082;SDS011;5595;50.186;8.468;2023-05-16T03:47:44;7.10;;;4.17;;
11082;SDS011;5595;50.186;8.468;2023-05-16T03:50:11;5.77;;;3.73;;
11082;SDS011;5595;50.186;8.468;2023-05-16T03:52:38;7.30;;;4.33;;
11082;SDS011;5595;50.186;8.468;2023-05-16T03:55:05;8.77;;;3.00;;
11082;SDS011;5595;50.186;8.468;2023-05-16T03:57:35;7.70;;;3.03;;
11082;SDS011;5595;50.186;8.468;2023-05-16T04:00:03;2.10;;;1.43;;
11082;SDS011;5595;50.186;8.468;2023-05-16T04:02:32;5.73;;;3.50;;
11082;SDS011;5595;50.186;8.468;2023-05-16T04:04:59;4.67;;;3.10;;
11082;SDS011;5595;50.186;8.468;2023-05-16T04:07:26;3.73;;;2.13;;
11082;SDS011;5595;50.186;8.468;2023-05-16T04:09:53;3.40;;;2.53;;
11082;SDS011;5595;50.186;8.468;2023-05-16T04:12:20;3.90;;;2.80;;
11082;SDS011;5595;50.186;8.468;2023-05-16T04:14:48;3.67;;;1.63;;
11082;SDS011;5595;50.186;8.468;2023-05-16T04:17:15;3.80;;;2.73;;
11082;SDS011;5595;50.186;8.468;2023-05-16T04:19:42;2.90;;;1.83;;
11082;SDS011;5595;50.186;8.468;2023-05-16T04:22:09;1.30;;;1.10;;
11082;SDS011;5595;50.186;8.468;2023-05-16T04:24:36;2.00;;;1.23;;
11082;SDS011;5595;50.186;8.468;2023-05-16T04:27:03;2.60;;;1.80;;
11082;SDS011;5595;50.186;8.468;2023-05-16T04:29:32;1.93;;;1.20;;
11082;SDS011;5595;50.186;8.468;2023-05-16T04:32:01;1.80;;;1.10;;
11082;SDS011;5595;50.186;8.468;2023-05-16T04:34:28;2.10;;;1.23;;
11082;SDS011;5595;50.186;8.468;2023-05-16T04:36:55;1.93;;;1.17;;
11082;SDS011;5595;50.186;8.468;2023-05-16T04:39:22;2.40;;;0.87;;
11082;SDS011;5595;50.186;8.468;2023-05-16T04:41:49;1.93;;;1.40;;
11082;SDS011;5595;50.186;8.468;2023-05-16T04:44:16;1.00;;;0.60;;
11082;SDS011;5595;50.186;8.468;2023-05-16T04:46:42;0.40;;;0.40;;
11082;SDS011;5595;50.186;8.468;2023-05-16T04:49:11;0.70;;;0.53;;
11082;SDS011;5595;50.186;8.468;2023-05-16T04:51:38;1.23;;;0.80;;
11082;SDS011;5595;50.186;8.468;2023-05-16T04:54:05;0.67;;;0.47;;
11082;SDS011;5595;50.186;8.468;2023-05-16T04:56:32;1.33;;;1.03;;
11082;SDS011;5595;50.186;8.468;2023-05-16T04:58:59;1.93;;;0.60;;
11082;SDS011;5595;50.186;8.468;2023-05-16T05:01:26;2.13;;;0.50;;
11082;SDS011;5595;50.186;8.468;2023-05-16T05:03:53;0.93;;;0.63;;
11082;SDS011;5595;50.186;8.468;2023-05-16T05:06:21;0.47;;;0.47;;
11082;SDS011;5595;50.186;8.468;2023-05-16T05:08:48;0.53;;;0.53;;
11082;SDS011;5595;50.186;8.468;2023-05-16T05:11:15;0.50;;;0.50;;
11082;SDS011;5595;50.186;8.468;2023-05-16T05:13:42;0.45;;;0.40;;
11082;SDS011;5595;50.186;8.468;2023-05-16T05:16:09;0.50;;;0.50;;
11082;SDS011;5595;50.186;8.468;2023-05-16T05:18:37;0.55;;;0.55;;
11082;SDS011;5595;50.186;8.468;2023-05-16T05:21:04;1.20;;;0.88;;
11082;SDS011;5595;50.186;8.468;2023-05-16T05:23:32;2.80;;;0.60;;
11082;SDS011;5595;50.186;8.468;2023-05-16T05:25:59;1.10;;;0.65;;
11082;SDS011;5595;50.186;8.468;2023-05-16T05:28:26;0.13;;;0.13;;
11082;SDS011;5595;50.186;8.468;2023-05-16T05:30:53;0.57;;;0.40;;
11082;SDS011;5595;50.186;8.468;2023-05-16T05:33:22;1.08;;;0.32;;
11082;SDS011;5595;50.186;8.468;2023-05-16T05:35:52;0.50;;;0.15;;
11082;SDS011;5595;50.186;8.468;2023-05-16T05:38:19;0.43;;;0.30;;
11082;SDS011;5595;50.186;8.468;2023-05-16T05:40:48;0.30;;;0.20;;
11082;SDS011;5595;50.186;8.468;2023-05-16T05:43:15;0.05;;;0.05;;
11082;SDS011;5595;50.186;8.468;2023-05-16T05:45:41;0.60;;;0.20;;
11082;SDS011;5595;50.186;8.468;2023-05-16T05:48:09;0.10;;;0.10;;
11082;SDS011;5595;50.186;8.468;2023-05-16T05:50:36;0.10;;;0.10;;
11082;SDS011;5595;50.186;8.468;2023-05-16T05:53:03;0.10;;;0.10;;
11082;SDS011;5595;50.186;8.468;2023-05-16T05:55:30;0.10;;;0.10;;
11082;SDS011;5595;50.186;8.468;2023-05-16T05:57:58;0.10;;;0.10;;
11082;SDS011;5595;50.186;8.468;2023-05-16T06:00:25;0.00;;;0.00;;
11082;SDS011;5595;50.186;8.468;2023-05-16T06:02:52;0.10;;;0.10;;
11082;SDS011;5595;50.186;8.468;2023-05-16T06:05:19;0.00;;;0.00;;
11082;SDS011;5595;50.186;8.468;2023-05-16T06:07:47;0.00;;;0.00;;
11082;SDS011;5595;50.186;8.468;2023-05-16T06:10:14;0.10;;;0.10;;
11082;SDS011;5595;50.186;8.468;2023-05-16T06:12:41;0.00;;;0.00;;
11082;SDS011;5595;50.186;8.468;2023-05-16T06:15:10;0.00;;;0.00;;
11082;SDS011;5595;50.186;8.468;2023-05-16T06:17:37;0.05;;;0.05;;
11082;SDS011;5595;50.186;8.468;2023-05-16T06:20:04;0.10;;;0.10;;
11082;SDS011;5595;50.186;8.468;2023-05-16T06:22:32;0.00;;;0.00;;
11082;SDS011;5595;50.186;8.468;2023-05-16T06:24:59;0.10;;;0.10;;
11082;SDS011;5595;50.186;8.468;2023-05-16T06:27:26;0.03;;;0.03;;
11082;SDS011;5595;50.186;8.468;2023-05-16T06:29:53;0.10;;;0.03;;
11082;SDS011;5595;50.186;8.468;2023-05-16T06:32:22;0.03;;;0.00;;
11082;SDS011;5595;50.186;8.468;2023-05-16T06:34:49;0.10;;;0.10;;
11082;SDS011;5595;50.186;8.468;2023-05-16T06:37:15;0.00;;;0.00;;
11082;SDS011;5595;50.186;8.468;2023-05-16T06:39:43;0.00;;;0.00;;
11082;SDS011;5595;50.186;8.468;2023-05-16T06:42:10;0.22;;;0.08;;
11082;SDS011;5595;50.186;8.468;2023-05-16T06:44:37;0.10;;;0.10;;
11082;SDS011;5595;50.186;8.468;2023-05-16T06:47:05;0.20;;;0.20;;
11082;SDS011;5595;50.186;8.468;2023-05-16T06:49:34;0.00;;;0.00;;
11082;SDS011;5595;50.186;8.468;2023-05-16T06:52:03;0.05;;;0.05;;
11082;SDS011;5595;50.186;8.468;2023-05-16T06:54:31;0.15;;;0.15;;
11082;SDS011;5595;50.186;8.468;2023-05-16T06:56:58;0.00;;;0.00;;
11082;SDS011;5595;50.186;8.468;2023-05-16T06:59:24;0.00;;;0.00;;
11082;SDS011;5595;50.186;8.468;2023-05-16T07:01:59;0.10;;;0.00;;
11082;SDS011;5595;50.186;8.468;2023-05-16T07:04:26;0.00;;;0.00;;
11082;SDS011;5595;50.186;8.468;2023-05-16T07:07:00;0.00;;;0.00;;
11082;SDS011;5595;50.186;8.468;2023-05-16T07:09:27;0.00;;;0.00;;
11082;SDS011;5595;50.186;8.468;2023-05-16T07:11:54;0.00;;;0.00;;
11082;SDS011;5595;50.186;8.468;2023-05-16T07:14:21;0.00;;;0.00;;
11082;SDS011;5595;50.186;8.468;2023-05-16T07:16:48;0.30;;;0.10;;
11082;SDS011;5595;50.186;8.468;2023-05-16T07:19:14;0.00;;;0.00;;
11082;SDS011;5595;50.186;8.468;2023-05-16T07:21:43;0.00;;;0.00;;
11082;SDS011;5595;50.186;8.468;2023-05-16T07:24:14;0.00;;;0.00;;
11082;SDS011;5595;50.186;8.468;2023-05-16T07:26:41;0.70;;;0.10;;
11082;SDS011;5595;50.186;8.468;2023-05-16T07:29:08;0.00;;;0.00;;
11082;SDS011;5595;50.186;8.468;2023-05-16T07:31:34;0.00;;;0.00;;
11082;SDS011;5595;50.186;8.468;2023-05-16T07:34:01;0.10;;;0.00;;
11082;SDS011;5595;50.186;8.468;2023-05-16T07:36:28;0.00;;;0.00;;
11082;SDS011;5595;50.186;8.468;2023-05-16T07:38:55;0.00;;;0.00;;
11082;SDS011;5595;50.186;8.468;2023-05-16T07:41:23;0.00;;;0.00;;
11082;SDS011;5595;50.186;8.468;2023-05-16T07:43:51;0.00;;;0.00;;
11082;SDS011;5595;50.186;8.468;2023-05-16T07:46:18;0.50;;;0.03;;
11082;SDS011;5595;50.186;8.468;2023-05-16T07:48:44;3.00;;;0.10;;
11082;SDS011;5595;50.186;8.468;2023-05-16T07:51:14;0.10;;;0.00;;
11082;SDS011;5595;50.186;8.468;2023-05-16T07:53:41;0.10;;;0.00;;
11082;SDS011;5595;50.186;8.468;2023-05-16T07:56:08;0.27;;;0.00;;
11082;SDS011;5595;50.186;8.468;2023-05-16T07:58:36;0.00;;;0.00;;
11082;SDS011;5595;50.186;8.468;2023-05-16T08:01:03;2.00;;;0.00;;
11082;SDS011;5595;50.186;8.468;2023-05-16T08:03:30;0.00;;;0.00;;
11082;SDS011;5595;50.186;8.468;2023-05-16T08:05:57;0.07;;;0.07;;
11082;SDS011;5595;50.186;8.468;2023-05-16T08:08:24;0.00;;;0.00;;
11082;SDS011;5595;50.186;8.468;2023-05-16T08:10:51;0.00;;;0.00;;
11082;SDS011;5595;50.186;8.468;2023-05-16T08:13:18;0.20;;;0.13;;
11082;SDS011;5595;50.186;8.468;2023-05-16T08:15:46;1.70;;;0.10;;
11082;SDS011;5595;50.186;8.468;2023-05-16T08:18:13;0.00;;;0.00;;
11082;SDS011;5595;50.186;8.468;2023-05-16T08:20:41;0.10;;;0.10;;
11082;SDS011;5595;50.186;8.468;2023-05-16T08:23:08;0.17;;;0.17;;
11082;SDS011;5595;50.186;8.468;2023-05-16T08:25:35;0.10;;;0.10;;
11082;SDS011;5595;50.186;8.468;2023-05-16T08:28:02;0.17;;;0.00;;
11082;SDS011;5595;50.186;8.468;2023-05-16T08:30:29;0.00;;;0.00;;
11082;SDS011;5595;50.186;8.468;2023-05-16T08:32:57;0.00;;;0.00;;
11082;SDS011;5595;50.186;8.468;2023-05-16T08:35:28;0.20;;;0.00;;
11082;SDS011;5595;50.186;8.468;2023-05-16T08:37:55;0.00;;;0.00;;
11082;SDS011;5595;50.186;8.468;2023-05-16T08:40:23;0.10;;;0.10;;
11082;SDS011;5595;50.186;8.468;2023-05-16T08:42:52;0.43;;;0.10;;
11082;SDS011;5595;50.186;8.468;2023-05-16T08:45:24;0.25;;;0.20;;
11082;SDS011;5595;50.186;8.468;2023-05-16T08:47:52;0.10;;;0.10;;
11082;SDS011;5595;50.186;8.468;2023-05-16T08:50:22;0.10;;;0.00;;
11082;SDS011;5595;50.186;8.468;2023-05-16T08:52:50;1.13;;;0.10;;
11082;SDS011;5595;50.186;8.468;2023-05-16T08:55:18;0.17;;;0.10;;
11082;SDS011;5595;50.186;8.468;2023-05-16T08:57:47;1.17;;;0.08;;
11082;SDS011;5595;50.186;8.468;2023-05-16T09:00:16;0.00;;;0.00;;
11082;SDS011;5595;50.186;8.468;2023-05-16T09:02:47;0.00;;;0.00;;
11082;SDS011;5595;50.186;8.468;2023-05-16T09:05:16;0.45;;;0.13;;
11082;SDS011;5595;50.186;8.468;2023-05-16T09:07:44;2.20;;;0.20;;
11082;SDS011;5595;50.186;8.468;2023-05-16T09:10:14;0.28;;;0.17;;
11082;SDS011;5595;50.186;8.468;2023-05-16T09:12:41;0.10;;;0.10;;
11082;SDS011;5595;50.186;8.468;2023-05-16T09:15:08;0.57;;;0.20;;
11082;SDS011;5595;50.186;8.468;2023-05-16T09:17:41;0.93;;;0.17;;
11082;SDS011;5595;50.186;8.468;2023-05-16T09:20:10;0.40;;;0.20;;
11082;SDS011;5595;50.186;8.468;2023-05-16T09:22:38;0.05;;;0.05;;
11082;SDS011;5595;50.186;8.468;2023-05-16T09:25:08;0.32;;;0.30;;
11082;SDS011;5595;50.186;8.468;2023-05-16T09:27:44;0.65;;;0.17;;
11082;SDS011;5595;50.186;8.468;2023-05-16T09:30:12;0.13;;;0.13;;
11082;SDS011;5595;50.186;8.468;2023-05-16T09:32:46;0.38;;;0.10;;
11082;SDS011;5595;50.186;8.468;2023-05-16T09:35:13;0.70;;;0.25;;
11082;SDS011;5595;50.186;8.468;2023-05-16T09:37:43;0.32;;;0.20;;
11082;SDS011;5595;50.186;8.468;2023-05-16T09:40:13;0.17;;;0.17;;
11082;SDS011;5595;50.186;8.468;2023-05-16T09:42:41;0.20;;;0.20;;
11082;SDS011;5595;50.186;8.468;2023-05-16T09:45:10;2.53;;;0.43;;
11082;SDS011;5595;50.186;8.468;2023-05-16T09:47:38;0.50;;;0.20;;
11082;SDS011;5595;50.186;8.468;2023-05-16T09:50:12;0.65;;;0.35;;
11082;SDS011;5595;50.186;8.468;2023-05-16T09:52:42;1.35;;;0.20;;
11082;SDS011;5595;50.186;8.468;2023-05-16T09:55:09;0.50;;;0.35;;
11082;SDS011;5595;50.186;8.468;2023-05-16T09:57:40;0.45;;;0.35;;
11082;SDS011;5595;50.186;8.468;2023-05-16T10:00:09;0.75;;;0.30;;
11082;SDS011;5595;50.186;8.468;2023-05-16T10:02:37;0.70;;;0.17;;
11082;SDS011;5595;50.186;8.468;2023-05-16T10:05:04;2.63;;;0.30;;
11082;SDS011;5595;50.186;8.468;2023-05-16T10:07:32;1.45;;;0.45;;
11082;SDS011;5595;50.186;8.468;2023-05-16T10:09:59;1.25;;;0.40;;
11082;SDS011;5595;50.186;8.468;2023-05-16T10:12:30;1.88;;;0.43;;
11082;SDS011;5595;50.186;8.468;2023-05-16T10:14:59;0.45;;;0.30;;
11082;SDS011;5595;50.186;8.468;2023-05-16T10:17:27;1.63;;;0.50;;
11082;SDS011;5595;50.186;8.468;2023-05-16T10:19:57;2.08;;;0.40;;
11082;SDS011;5595;50.186;8.468;2023-05-16T10:22:29;0.43;;;0.30;;
11082;SDS011;5595;50.186;8.468;2023-05-16T10:25:04;0.40;;;0.30;;
11082;SDS011;5595;50.186;8.468;2023-05-16T10:27:40;0.80;;;0.40;;
11082;SDS011;5595;50.186;8.468;2023-05-16T10:30:09;0.45;;;0.30;;
11082;SDS011;5595;50.186;8.468;2023-05-16T10:32:37;0.40;;;0.22;;
11082;SDS011;5595;50.186;8.468;2023-05-16T10:35:06;1.73;;;0.30;;
11082;SDS011;5595;50.186;8.468;2023-05-16T10:37:37;0.60;;;0.30;;
11082;SDS011;5595;50.186;8.468;2023-05-16T10:40:06;1.58;;;0.30;;
11082;SDS011;5595;50.186;8.468;2023-05-16T10:42:34;3.08;;;0.30;;
11082;SDS011;5595;50.186;8.468;2023-05-16T10:45:18;1.50;;;0.20;;
11082;SDS011;5595;50.186;8.468;2023-05-16T10:47:52;1.45;;;0.20;;
11082;SDS011;5595;50.186;8.468;2023-05-16T10:50:32;0.85;;;0.30;;
11082;SDS011;5595;50.186;8.468;2023-05-16T10:53:15;2.50;;;0.57;;
11082;SDS011;5595;50.186;8.468;2023-05-16T10:55:44;2.42;;;0.30;;
11082;SDS011;5595;50.186;8.468;2023-05-16T10:58:17;1.73;;;0.30;;
11082;SDS011;5595;50.186;8.468;2023-05-16T11:00:54;0.52;;;0.30;;
11082;SDS011;5595;50.186;8.468;2023-05-16T11:03:45;0.70;;;0.30;;
11082;SDS011;5595;50.186;8.468;2023-05-16T11:06:27;1.15;;;0.30;;
11082;SDS011;5595;50.186;8.468;2023-05-16T11:09:05;0.80;;;0.25;;
11082;SDS011;5595;50.186;8.468;2023-05-16T11:11:41;1.92;;;0.40;;
11082;SDS011;5595;50.186;8.468;2023-05-16T11:14:16;0.73;;;0.40;;
11082;SDS011;5595;50.186;8.468;2023-05-16T11:16:50;2.05;;;0.50;;
11082;SDS011;5595;50.186;8.468;2023-05-16T11:22:04;1.25;;;0.25;;
11082;SDS011;5595;50.186;8.468;2023-05-16T11:24:35;1.90;;;0.40;;
11082;SDS011;5595;50.186;8.468;2023-05-16T11:27:03;0.40;;;0.22;;
11082;SDS011;5595;50.186;8.468;2023-05-16T11:29:33;1.25;;;0.40;;
11082;SDS011;5595;50.186;8.468;2023-05-16T11:32:20;0.77;;;0.55;;
11082;SDS011;5595;50.186;8.468;2023-05-16T11:34:48;0.88;;;0.17;;
11082;SDS011;5595;50.186;8.468;2023-05-16T11:37:16;0.60;;;0.30;;
11082;SDS011;5595;50.186;8.468;2023-05-16T11:39:45;3.20;;;0.50;;
11082;SDS011;5595;50.186;8.468;2023-05-16T11:42:12;0.55;;;0.20;;
11082;SDS011;5595;50.186;8.468;2023-05-16T11:44:39;0.35;;;0.20;;
11082;SDS011;5595;50.186;8.468;2023-05-16T11:47:07;1.02;;;0.43;;
11082;SDS011;5595;50.186;8.468;2023-05-16T11:49:35;1.08;;;0.20;;
11082;SDS011;5595;50.186;8.468;2023-05-16T11:52:03;1.92;;;0.30;;
11082;SDS011;5595;50.186;8.468;2023-05-16T11:54:33;0.22;;;0.10;;
11082;SDS011;5595;50.186;8.468;2023-05-16T11:57:03;4.72;;;0.45;;
11082;SDS011;5595;50.186;8.468;2023-05-16T12:00:00;1.33;;;0.20;;
11082;SDS011;5595;50.186;8.468;2023-05-16T12:02:41;0.93;;;0.20;;
11082;SDS011;5595;50.186;8.468;2023-05-16T12:05:25;0.17;;;0.17;;
11082;SDS011;5595;50.186;8.468;2023-05-16T12:08:07;1.35;;;0.20;;
11082;SDS011;5595;50.186;8.468;2023-05-16T12:10:42;1.80;;;0.28;;
11082;SDS011;5595;50.186;8.468;2023-05-16T12:13:08;1.02;;;0.28;;
11082;SDS011;5595;50.186;8.468;2023-05-16T12:15:36;0.70;;;0.10;;
11082;SDS011;5595;50.186;8.468;2023-05-16T12:18:06;1.25;;;0.20;;
11082;SDS011;5595;50.186;8.468;2023-05-16T12:20:35;1.05;;;0.30;;
11082;SDS011;5595;50.186;8.468;2023-05-16T12:23:02;2.70;;;0.38;;
11082;SDS011;5595;50.186;8.468;2023-05-16T12:25:30;0.82;;;0.20;;
11082;SDS011;5595;50.186;8.468;2023-05-16T12:27:58;2.50;;;0.30;;
11082;SDS011;5595;50.186;8.468;2023-05-16T12:30:26;1.20;;;0.20;;
11082;SDS011;5595;50.186;8.468;2023-05-16T12:32:55;2.03;;;0.20;;
11082;SDS011;5595;50.186;8.468;2023-05-16T12:35:22;2.58;;;0.25;;
11082;SDS011;5595;50.186;8.468;2023-05-16T12:37:53;2.17;;;0.20;;
11082;SDS011;5595;50.186;8.468;2023-05-16T12:40:20;2.15;;;0.35;;
11082;SDS011;5595;50.186;8.468;2023-05-16T12:42:48;4.60;;;0.30;;
11082;SDS011;5595;50.186;8.468;2023-05-16T12:45:16;1.95;;;0.38;;
11082;SDS011;5595;50.186;8.468;2023-05-16T12:47:43;0.20;;;0.20;;
11082;SDS011;5595;50.186;8.468;2023-05-16T12:50:11;2.13;;;0.20;;
11082;SDS011;5595;50.186;8.468;2023-05-16T12:52:47;0.50;;;0.17;;
11082;SDS011;5595;50.186;8.468;2023-05-16T12:55:16;2.08;;;0.40;;
11082;SDS011;5595;50.186;8.468;2023-05-16T12:57:44;1.90;;;0.28;;
11082;SDS011;5595;50.186;8.468;2023-05-16T13:00:13;0.20;;;0.13;;
11082;SDS011;5595;50.186;8.468;2023-05-16T13:02:42;2.95;;;0.50;;
11082;SDS011;5595;50.186;8.468;2023-05-16T13:05:10;1.27;;;0.43;;
11082;SDS011;5595;50.186;8.468;2023-05-16T13:07:56;1.50;;;0.40;;
11082;SDS011;5595;50.186;8.468;2023-05-16T13:10:25;0.63;;;0.20;;
11082;SDS011;5595;50.186;8.468;2023-05-16T13:12:52;0.43;;;0.10;;
11082;SDS011;5595;50.186;8.468;2023-05-16T13:15:22;0.80;;;0.20;;
11082;SDS011;5595;50.186;8.468;2023-05-16T13:17:49;0.10;;;0.10;;
11082;SDS011;5595;50.186;8.468;2023-05-16T13:20:17;0.10;;;0.10;;
11082;SDS011;5595;50.186;8.468;2023-05-16T13:22:45;0.20;;;0.10;;
11082;SDS011;5595;50.186;8.468;2023-05-16T13:25:12;0.20;;;0.20;;
11082;SDS011;5595;50.186;8.468;2023-05-16T13:27:40;1.95;;;0.20;;
11082;SDS011;5595;50.186;8.468;2023-05-16T13:30:07;0.47;;;0.20;;
11082;SDS011;5595;50.186;8.468;2023-05-16T13:32:35;0.63;;;0.13;;
11082;SDS011;5595;50.186;8.468;2023-05-16T13:35:02;0.35;;;0.10;;
11082;SDS011;5595;50.186;8.468;2023-05-16T13:37:30;0.10;;;0.10;;
11082;SDS011;5595;50.186;8.468;2023-05-16T13:40:01;1.17;;;0.30;;
11082;SDS011;5595;50.186;8.468;2023-05-16T13:42:34;0.17;;;0.10;;
11082;SDS011;5595;50.186;8.468;2023-05-16T13:45:02;2.80;;;0.28;;
11082;SDS011;5595;50.186;8.468;2023-05-16T13:47:29;0.65;;;0.10;;
11082;SDS011;5595;50.186;8.468;2023-05-16T13:50:00;0.55;;;0.10;;
11082;SDS011;5595;50.186;8.468;2023-05-16T13:52:33;1.65;;;0.22;;
11082;SDS011;5595;50.186;8.468;2023-05-16T13:55:00;1.17;;;0.25;;
11082;SDS011;5595;50.186;8.468;2023-05-16T13:57:27;1.65;;;0.20;;
11082;SDS011;5595;50.186;8.468;2023-05-16T13:59:54;0.05;;;0.05;;
11082;SDS011;5595;50.186;8.468;2023-05-16T14:02:23;1.58;;;0.10;;
11082;SDS011;5595;50.186;8.468;2023-05-16T14:04:51;0.90;;;0.20;;
11082;SDS011;5595;50.186;8.468;2023-05-16T14:07:18;0.20;;;0.10;;
11082;SDS011;5595;50.186;8.468;2023-05-16T14:09:45;1.38;;;0.20;;
11082;SDS011;5595;50.186;8.468;2023-05-16T14:12:12;1.63;;;0.40;;
11082;SDS011;5595;50.186;8.468;2023-05-16T14:14:39;2.10;;;0.20;;
11082;SDS011;5595;50.186;8.468;2023-05-16T14:17:08;1.05;;;0.10;;
11082;SDS011;5595;50.186;8.468;2023-05-16T14:19:38;1.65;;;0.20;;
11082;SDS011;5595;50.186;8.468;2023-05-16T14:22:05;0.45;;;0.10;;
11082;SDS011;5595;50.186;8.468;2023-05-16T14:24:32;1.00;;;0.20;;
11082;SDS011;5595;50.186;8.468;2023-05-16T14:26:59;0.30;;;0.20;;
11082;SDS011;5595;50.186;8.468;2023-05-16T14:29:27;2.50;;;0.30;;
11082;SDS011;5595;50.186;8.468;2023-05-16T14:31:55;1.20;;;0.20;;
11082;SDS011;5595;50.186;8.468;2023-05-16T14:34:22;0.08;;;0.05;;
11082;SDS011;5595;50.186;8.468;2023-05-16T14:36:51;0.22;;;0.20;;
11082;SDS011;5595;50.186;8.468;2023-05-16T14:39:18;2.58;;;0.17;;
11082;SDS011;5595;50.186;8.468;2023-05-16T14:41:48;0.10;;;0.10;;
11082;SDS011;5595;50.186;8.468;2023-05-16T14:47:20;1.65;;;0.10;;
11082;SDS011;5595;50.186;8.468;2023-05-16T14:49:47;1.42;;;0.22;;
11082;SDS011;5595;50.186;8.468;2023-05-16T14:52:15;0.77;;;0.20;;
11082;SDS011;5595;50.186;8.468;2023-05-16T14:54:42;0.10;;;0.10;;
11082;SDS011;5595;50.186;8.468;2023-05-16T14:57:16;0.60;;;0.28;;
11082;SDS011;5595;50.186;8.468;2023-05-16T14:59:46;1.98;;;0.10;;
11082;SDS011;5595;50.186;8.468;2023-05-16T15:02:14;2.45;;;0.17;;
11082;SDS011;5595;50.186;8.468;2023-05-16T15:04:41;0.63;;;0.22;;
11082;SDS011;5595;50.186;8.468;2023-05-16T15:07:12;0.63;;;0.57;;
11082;SDS011;5595;50.186;8.468;2023-05-16T15:09:47;0.80;;;0.30;;
11082;SDS011;5595;50.186;8.468;2023-05-16T15:12:13;2.10;;;0.43;;
11082;SDS011;5595;50.186;8.468;2023-05-16T15:14:42;0.10;;;0.10;;
11082;SDS011;5595;50.186;8.468;2023-05-16T15:17:09;0.55;;;0.10;;